Fukujin Maru No.5 — JJ3764 — position and weather

sailwx.info

Track history (hours):
 
Tides and Currents Weather Stations Pressure Air Temp Water Temp Dewpoint Dewpoint Depression Visibility Wind Speed Wind Dir Waves Ship Positions

Fukujin Maru No.5

Last reported at 2017-Oct-10 21:35 UTC. Time now 2017-Dec-17 04:12 UTC.
Position N 34°60' E 139°51'.
Warning: this ship's position is months out of date.

Length 59 m.

Type: Ship. MMSI: 431301373.

Date/timePositionNaut miles runAvg speedWind from/ knotsBaromVisibWave heightAir tempDewpointWater temp
2017-Oct-10 21:35N 34°60' E 139°51'1 8.9
2017-Oct-10 21:30N 35°00' E 139°50'4 8.9
2017-Oct-10 21:00N 35°04' E 139°47'5 9.7
2017-Oct-10 20:29N 35°09' E 139°47'4 9.1
2017-Oct-10 20:00N 35°13' E 139°46'21 1.0
2017-Oct-09 22:35N 35°34' E 139°47'15 8.5
2017-Oct-09 20:52N 35°20' E 139°44'610.5
2017-Oct-09 20:18N 35°14' E 139°47'310.6
2017-Oct-09 20:00N 35°11' E 139°47'5 9.9
2017-Oct-09 19:30N 35°06' E 139°47'7 0.4
2017-Oct-09 02:58N 34°60' E 139°51'4 8.9
2017-Oct-09 02:28N 35°03' E 139°47'4 9.6
2017-Oct-09 02:00N 35°08' E 139°47'5 9.4
2017-Oct-09 01:30N 35°12' E 139°46'10 2.5
2017-Oct-08 21:29N 35°21' E 139°41'610.5
2017-Oct-08 20:56N 35°17' E 139°45'410.3
2017-Oct-08 20:30N 35°13' E 139°47'510.2
2017-Oct-08 20:00N 35°07' E 139°47'510.0
2017-Oct-08 19:30N 35°02' E 139°47'3 0.2
2017-Oct-07 22:26N 34°60' E 139°50'4 8.6
2017-Oct-07 21:59N 35°03' E 139°47'4 8.2
2017-Oct-07 21:30N 35°07' E 139°47'5 9.5
2017-Oct-07 21:00N 35°12' E 139°47'6 8.7
2017-Oct-07 20:22N 35°17' E 139°45'4 9.0
2017-Oct-07 19:58N 35°20' E 139°43'4 9.0
2017-Oct-07 19:29N 35°24' E 139°43'  
2017-Oct-03 03:39N 35°29' E 139°49'310.2
2017-Oct-03 03:23N 35°26' E 139°47'410.4
2017-Oct-03 02:59N 35°22' E 139°45'5 9.5
2017-Oct-03 02:29N 35°18' E 139°45'5 9.5
2017-Oct-03 01:58N 35°13' E 139°47'4 9.1
2017-Oct-03 01:30N 35°09' E 139°47'5 9.2
2017-Oct-03 01:00N 35°04' E 139°47'5 0.3
2017-Oct-02 07:09N 34°60' E 139°50'1 9.4
2017-Oct-02 07:00N 35°01' E 139°49'4 8.6
2017-Oct-02 06:30N 35°05' E 139°47'4 8.9
2017-Oct-02 06:00N 35°09' E 139°47'5 9.2
2017-Oct-02 05:27N 35°14' E 139°46'5 8.9
2017-Oct-02 04:54N 35°19' E 139°44'4 9.4
2017-Oct-02 04:29N 35°22' E 139°41'2 3.7
2017-Oct-02 03:50N 35°23' E 139°38'0 0.0
2017-Oct-02 03:29N 35°23' E 139°38'0 0.0
2017-Oct-02 02:56N 35°23' E 139°38'0 0.0
2017-Oct-02 02:20N 35°23' E 139°38'0 0.0
2017-Oct-02 01:50N 35°23' E 139°38'0 0.0
2017-Oct-02 00:35N 35°23' E 139°38'0 0.0
2017-Oct-02 00:29N 35°23' E 139°38'0 0.0
2017-Oct-02 00:00N 35°23' E 139°38'4 6.6
2017-Oct-01 23:27N 35°21' E 139°42'510.2
2017-Oct-01 22:59N 35°17' E 139°45'4 9.2
2017-Oct-01 22:29N 35°13' E 139°47'510.2
2017-Oct-01 22:00N 35°08' E 139°47'  
Track history (hours):
 
Tides and Currents Weather Stations Pressure Air Temp Water Temp Dewpoint Dewpoint Depression Visibility Wind Speed Wind Dir Waves Ship Positions

Fukujin Maru No.5

Last reported at 2017-Oct-10 21:35 UTC. Time now 2017-Dec-17 04:12 UTC.
Position N 34°60' E 139°51'.
Warning: this ship's position is months out of date.

Length 59 m.

Type: Ship. MMSI: 431301373.

Date/timePositionNaut miles runAvg speedWind from/ knotsBaromVisibWave heightAir tempDewpointWater temp
2017-Oct-10 21:35N 34°60' E 139°51'1 8.9
2017-Oct-10 21:30N 35°00' E 139°50'4 8.9
2017-Oct-10 21:00N 35°04' E 139°47'5 9.7
2017-Oct-10 20:29N 35°09' E 139°47'4 9.1
2017-Oct-10 20:00N 35°13' E 139°46'21 1.0
2017-Oct-09 22:35N 35°34' E 139°47'15 8.5
2017-Oct-09 20:52N 35°20' E 139°44'610.5
2017-Oct-09 20:18N 35°14' E 139°47'310.6
2017-Oct-09 20:00N 35°11' E 139°47'5 9.9
2017-Oct-09 19:30N 35°06' E 139°47'7 0.4
2017-Oct-09 02:58N 34°60' E 139°51'4 8.9
2017-Oct-09 02:28N 35°03' E 139°47'4 9.6
2017-Oct-09 02:00N 35°08' E 139°47'5 9.4
2017-Oct-09 01:30N 35°12' E 139°46'10 2.5
2017-Oct-08 21:29N 35°21' E 139°41'610.5
2017-Oct-08 20:56N 35°17' E 139°45'410.3
2017-Oct-08 20:30N 35°13' E 139°47'510.2
2017-Oct-08 20:00N 35°07' E 139°47'510.0
2017-Oct-08 19:30N 35°02' E 139°47'3 0.2
2017-Oct-07 22:26N 34°60' E 139°50'4 8.6
2017-Oct-07 21:59N 35°03' E 139°47'4 8.2
2017-Oct-07 21:30N 35°07' E 139°47'5 9.5
2017-Oct-07 21:00N 35°12' E 139°47'6 8.7
2017-Oct-07 20:22N 35°17' E 139°45'4 9.0
2017-Oct-07 19:58N 35°20' E 139°43'4 9.0
2017-Oct-07 19:29N 35°24' E 139°43'  
2017-Oct-03 03:39N 35°29' E 139°49'310.2
2017-Oct-03 03:23N 35°26' E 139°47'410.4
2017-Oct-03 02:59N 35°22' E 139°45'5 9.5
2017-Oct-03 02:29N 35°18' E 139°45'5 9.5
2017-Oct-03 01:58N 35°13' E 139°47'4 9.1
2017-Oct-03 01:30N 35°09' E 139°47'5 9.2
2017-Oct-03 01:00N 35°04' E 139°47'5 0.3
2017-Oct-02 07:09N 34°60' E 139°50'1 9.4
2017-Oct-02 07:00N 35°01' E 139°49'4 8.6
2017-Oct-02 06:30N 35°05' E 139°47'4 8.9
2017-Oct-02 06:00N 35°09' E 139°47'5 9.2
2017-Oct-02 05:27N 35°14' E 139°46'5 8.9
2017-Oct-02 04:54N 35°19' E 139°44'4 9.4
2017-Oct-02 04:29N 35°22' E 139°41'2 3.7
2017-Oct-02 03:50N 35°23' E 139°38'0 0.0
2017-Oct-02 03:29N 35°23' E 139°38'0 0.0
2017-Oct-02 02:56N 35°23' E 139°38'0 0.0
2017-Oct-02 02:20N 35°23' E 139°38'0 0.0
2017-Oct-02 01:50N 35°23' E 139°38'0 0.0
2017-Oct-02 00:35N 35°23' E 139°38'0 0.0
2017-Oct-02 00:29N 35°23' E 139°38'0 0.0
2017-Oct-02 00:00N 35°23' E 139°38'4 6.6
2017-Oct-01 23:27N 35°21' E 139°42'510.2
2017-Oct-01 22:59N 35°17' E 139°45'4 9.2
2017-Oct-01 22:29N 35°13' E 139°47'510.2
2017-Oct-01 22:00N 35°08' E 139°47'  

Dump ship's entire track history